Etusivu
METAR-TAF:

METAR-TAF

Lentoasemat :

Bermuda, Bermuda

Leveyspiiri: 32-22N, Pituuspiiri: 064-41W, korkeus merenpinnasta: 6 m

Tämänhetkinen sää

Tämä raportti tehtiin 30 minuuttia sitten, kello 18.55 UTC
Tuuli 12 kn etelästä/kaakosta
Lämpötila 27°C
Kosteus 79%
Ilmanpaine 1022 hPa
Näkyvyys 10 km tai enemmän
Muutamia pilviä 1700 ft:n korkeudessa
Hajonneita pilviä 1700 ft:n korkeudessa
Hajonneita pilviä 30000 ft:n korkeudessa

METAR: TXKF 211855Z 16012KT 9999 FEW017 BKN017 BKN300 27/23 Q1022

Aika: 16:25 (19:25 UTC)

Sääennuste

Tämä raportti tehtiin 1 tunti ja 55 minuuttia sitten, kello 17.30 UTC
Ennuste voimassa 21. päivästä klo 18 UTC - 22. päivään klo 18 UTC
Tuuli 14 kn etelästä/kaakosta
Näkyvyys 10 km tai enemmän
Muutamia pilviä 1300 ft:n korkeudessa
Hajanaisia pilviä 15000 ft:n korkeudessa
Hajonneita pilviä 30000 ft:n korkeudessa

TAF: TXKF 211730Z 2118/2218 15014KT 9999 FEW013 SCT150 BKN300

Säähavainnot ja -ennusteet yli 4000 lentoasemalta (METAR- ja TAF-raportit).

Käytössä olevat sääasemat on merkitty karttaan keltaisilla ja punaisilla pisteillä.

Aseta hiiri pisteen päälle nähdäksesi sääaseman nimen.

Klikkaa sitten nähdäksesi säähavainnot ja -ennusteet.

Kartan vaihtaminen: klikkaa mustalla rastilla varustettuja vihreitä pisteitä, niin voit zoomata sisään; viivalla varustettua vihreää pistettä, niin voit zoomata ulos tai vihreitä nuolia, niin pääset viereisille kartoille.


METAR-TAF: